Time;durP1;ratioP1;P1;durP2;ratioP2;P2;SDS_P1;SDS_P2;PMS_P1;PMS_P2;Temp;Humidity;BMP_temperature;BMP_pressure;BME280_temperature;BME280_humidity;BME280_pressure;Samples;Min_cycle;Max_cycle;Signal;HPM_P1;HPM_P2
2021/06/30 00:02:11;;;;;;;6.97;3.42;;;25.70;43.10;;;;;;5035587;28;20060;-70
2021/06/30 00:04:37;;;;;;;7.00;4.40;;;25.60;43.10;;;;;;5007704;28;20432;-71
2021/06/30 00:07:04;;;;;;;10.88;6.63;;;25.60;43.10;;;;;;5022012;28;20048;-71
2021/06/30 00:09:30;;;;;;;5.07;3.17;;;25.60;43.20;;;;;;5037299;28;20336;-71
2021/06/30 00:11:56;;;;;;;22.13;15.57;;;25.60;43.20;;;;;;5009025;28;20110;-71
2021/06/30 00:14:22;;;;;;;3.83;2.85;;;25.60;43.20;;;;;;5023343;28;20041;-70
2021/06/30 00:16:49;;;;;;;6.72;4.22;;;25.60;43.40;;;;;;5012934;28;20033;-71
2021/06/30 00:19:15;;;;;;;5.70;4.40;;;25.50;43.30;;;;;;5025515;28;20495;-72
2021/06/30 00:21:42;;;;;;;8.25;5.15;;;25.50;43.60;;;;;;5017388;28;20083;-73
2021/06/30 00:24:08;;;;;;;12.60;5.82;;;25.50;43.90;;;;;;5016799;28;20490;-70
2021/06/30 00:26:35;;;;;;;15.68;8.90;;;25.40;44.00;;;;;;5016940;28;20042;-70
2021/06/30 00:29:03;;;;;;;10.13;7.15;;;25.50;43.70;;;;;;5016327;28;20533;-71
2021/06/30 00:31:28;;;;;;;22.77;14.73;;;25.40;43.50;;;;;;5017380;28;20033;-71
2021/06/30 00:33:54;;;;;;;7.85;4.75;;;25.50;44.00;;;;;;5003079;28;20049;-71
2021/06/30 00:36:20;;;;;;;5.00;4.22;;;25.40;43.80;;;;;;5017601;28;20041;-71
2021/06/30 00:38:45;;;;;;;7.53;4.47;;;25.40;43.90;;;;;;5021297;28;20441;-72
2021/06/30 00:41:11;;;;;;;7.47;4.35;;;25.40;44.10;;;;;;5014693;28;20495;-70
2021/06/30 00:43:36;;;;;;;5.38;3.65;;;25.30;43.90;;;;;;5025497;28;20037;-69
2021/06/30 00:46:02;;;;;;;6.55;3.78;;;25.40;44.20;;;;;;5016560;28;20042;-70
2021/06/30 00:48:28;;;;;;;8.45;5.38;;;25.30;44.50;;;;;;5027403;28;20175;-70
2021/06/30 00:50:54;;;;;;;7.60;3.63;;;25.30;44.30;;;;;;5050100;28;20037;-70
2021/06/30 00:53:19;;;;;;;3.78;3.45;;;25.30;44.40;;;;;;5016315;28;20164;-69
2021/06/30 00:55:50;;;;;;;4.63;2.95;;;25.30;44.20;;;;;;5009921;28;20807;-70
2021/06/30 00:58:16;;;;;;;10.57;6.38;;;25.20;44.20;;;;;;5001641;28;20044;-69
2021/06/30 01:00:42;;;;;;;4.78;3.58;;;25.30;44.30;;;;;;5010809;28;20148;-70
2021/06/30 01:03:09;;;;;;;6.13;4.22;;;25.20;44.70;;;;;;5003752;28;20486;-70
2021/06/30 01:05:34;;;;;;;15.00;8.57;;;25.30;44.60;;;;;;5008545;28;20522;-71
2021/06/30 01:08:07;;;;;;;31.35;21.20;;;25.20;44.60;;;;;;5011239;28;20037;-70
2021/06/30 01:10:32;;;;;;;3.60;2.90;;;25.20;44.90;;;;;;5020103;28;20044;-70
2021/06/30 01:12:58;;;;;;;9.95;3.45;;;25.20;44.50;;;;;;5016099;28;20042;-71
2021/06/30 01:15:24;;;;;;;7.50;3.78;;;25.10;44.60;;;;;;5025509;28;20491;-70
2021/06/30 01:17:52;;;;;;;5.75;3.72;;;25.10;44.90;;;;;;5010746;28;20111;-70
2021/06/30 01:20:18;;;;;;;6.20;4.07;;;25.10;44.80;;;;;;5026106;28;20033;-70
2021/06/30 01:23:01;;;;;;;5.90;3.90;;;25.10;44.90;;;;;;5014185;28;20046;-70
2021/06/30 01:25:27;;;;;;;6.20;3.75;;;25.10;45.40;;;;;;5016389;28;20042;-69
2021/06/30 01:27:53;;;;;;;5.60;3.92;;;25.10;45.30;;;;;;5015952;28;20045;-70
2021/06/30 01:30:18;;;;;;;5.22;3.33;;;25.00;45.30;;;;;;5008026;28;20021;-69
2021/06/30 01:32:44;;;;;;;6.45;3.45;;;25.00;45.70;;;;;;5018726;28;20429;-70
2021/06/30 01:35:17;;;;;;;4.28;3.25;;;24.90;45.80;;;;;;5019778;28;20034;-69
2021/06/30 01:37:47;;;;;;;5.70;3.40;;;24.80;46.70;;;;;;5020666;28;20564;-69
2021/06/30 01:40:14;;;;;;;5.35;2.90;;;24.80;47.10;;;;;;5013561;28;20422;-70
2021/06/30 01:42:43;;;;;;;3.95;2.92;;;24.80;46.30;;;;;;5018923;28;20065;-69
2021/06/30 01:45:10;;;;;;;4.82;2.90;;;24.80;46.60;;;;;;5011846;28;20069;-70
2021/06/30 01:47:35;;;;;;;3.67;2.72;;;24.70;46.80;;;;;;5009750;28;20038;-71
2021/06/30 01:50:02;;;;;;;4.25;3.33;;;24.70;46.50;;;;;;5015501;28;20056;-70
2021/06/30 01:52:29;;;;;;;4.03;2.88;;;24.70;46.70;;;;;;5012753;28;20042;-70
2021/06/30 01:54:55;;;;;;;4.22;2.80;;;24.60;47.20;;;;;;5015906;28;20025;-71
2021/06/30 01:57:21;;;;;;;4.90;2.88;;;24.60;47.20;;;;;;5017616;28;20084;-70
2021/06/30 01:59:47;;;;;;;5.05;3.33;;;24.70;47.30;;;;;;5016726;28;20050;-71
2021/06/30 02:02:13;;;;;;;5.68;3.20;;;24.70;47.60;;;;;;5016088;28;20917;-72
2021/06/30 02:04:39;;;;;;;5.93;3.00;;;24.70;47.40;;;;;;5013592;28;20132;-70
2021/06/30 02:07:05;;;;;;;6.85;3.20;;;24.70;47.40;;;;;;5035126;28;20065;-71
2021/06/30 02:09:31;;;;;;;3.30;2.70;;;24.70;47.20;;;;;;5019563;28;20120;-72
2021/06/30 02:11:58;;;;;;;3.47;2.30;;;24.70;47.00;;;;;;5020084;28;20040;-71
2021/06/30 02:14:24;;;;;;;2.95;2.17;;;24.80;47.00;;;;;;5019899;28;20056;-71
2021/06/30 02:16:50;;;;;;;4.50;2.55;;;24.80;47.00;;;;;;5014286;28;20037;-71
2021/06/30 02:19:15;;;;;;;3.75;3.15;;;24.70;46.80;;;;;;5022891;28;20088;-70
2021/06/30 02:21:42;;;;;;;4.35;2.55;;;24.70;46.90;;;;;;5017651;28;20038;-70
2021/06/30 02:24:08;;;;;;;3.78;2.70;;;24.60;46.90;;;;;;5021609;28;20029;-69
2021/06/30 02:26:34;;;;;;;4.13;2.70;;;24.70;47.20;;;;;;5012310;28;20048;-71
2021/06/30 02:29:01;;;;;;;4.47;2.90;;;24.60;47.60;;;;;;5015586;28;20064;-70
2021/06/30 02:31:26;;;;;;;4.35;2.63;;;24.50;47.90;;;;;;5010270;28;20042;-69
2021/06/30 02:33:52;;;;;;;3.72;2.90;;;24.50;48.60;;;;;;5018893;28;20087;-70
2021/06/30 02:36:19;;;;;;;4.57;2.78;;;24.50;49.10;;;;;;5005718;28;20045;-70
2021/06/30 02:38:44;;;;;;;6.75;3.15;;;24.50;49.60;;;;;;5019771;28;20394;-69
2021/06/30 02:41:10;;;;;;;4.53;2.85;;;24.50;49.80;;;;;;5033659;28;20112;-70
2021/06/30 02:43:36;;;;;;;4.60;3.20;;;24.40;49.80;;;;;;5024814;28;20538;-70
2021/06/30 02:46:02;;;;;;;4.55;3.33;;;24.40;50.00;;;;;;5012171;28;20442;-69
2021/06/30 02:48:29;;;;;;;6.65;2.95;;;24.40;50.10;;;;;;5022051;28;20037;-70
2021/06/30 02:50:55;;;;;;;5.35;2.97;;;24.50;50.30;;;;;;5021313;28;20470;-70
2021/06/30 02:53:21;;;;;;;4.40;3.05;;;24.40;49.70;;;;;;5015594;28;20041;-71
2021/06/30 02:55:47;;;;;;;4.95;3.28;;;24.50;50.10;;;;;;5021246;28;20132;-71
2021/06/30 02:58:12;;;;;;;6.13;3.25;;;24.40;50.00;;;;;;5017073;28;20029;-70
2021/06/30 03:00:38;;;;;;;4.45;3.25;;;24.40;50.00;;;;;;5016611;28;20049;-69
2021/06/30 03:03:04;;;;;;;4.43;2.75;;;24.40;49.90;;;;;;5019390;28;20034;-71
2021/06/30 03:05:29;;;;;;;5.28;3.83;;;24.30;49.90;;;;;;5019937;28;20055;-70
2021/06/30 03:07:55;;;;;;;5.18;2.80;;;24.30;50.00;;;;;;5016850;28;20042;-73
2021/06/30 03:10:20;;;;;;;4.45;3.05;;;24.40;50.60;;;;;;5025124;28;20124;-72
2021/06/30 03:12:47;;;;;;;3.45;3.15;;;24.30;51.00;;;;;;5022220;28;20128;-70
2021/06/30 03:15:15;;;;;;;4.55;2.75;;;24.40;51.20;;;;;;5019137;28;20052;-70
2021/06/30 03:17:40;;;;;;;5.20;2.95;;;24.30;51.50;;;;;;5021424;28;20132;-71
2021/06/30 03:20:09;;;;;;;5.18;2.40;;;24.40;52.00;;;;;;5013741;28;20121;-72
2021/06/30 03:22:36;;;;;;;4.55;2.35;;;24.30;51.40;;;;;;5017695;28;20679;-71
2021/06/30 03:25:01;;;;;;;4.35;2.85;;;24.30;51.40;;;;;;5010461;28;20060;-69
2021/06/30 03:27:27;;;;;;;6.68;3.03;;;24.30;50.60;;;;;;5014838;28;20053;-70
2021/06/30 03:29:52;;;;;;;4.40;2.88;;;24.30;49.70;;;;;;5010577;28;20065;-71
2021/06/30 03:32:18;;;;;;;3.50;2.78;;;24.30;49.50;;;;;;5023670;28;20494;-71
2021/06/30 03:34:44;;;;;;;6.35;2.97;;;24.30;49.90;;;;;;5020153;28;20084;-71
2021/06/30 03:37:09;;;;;;;3.15;2.50;;;24.30;49.10;;;;;;5019641;28;20038;-70
2021/06/30 03:39:37;;;;;;;4.40;2.28;;;24.30;49.20;;;;;;5013164;28;20050;-71
2021/06/30 03:42:03;;;;;;;7.18;2.83;;;24.30;49.30;;;;;;5019765;28;20054;-70
2021/06/30 03:44:28;;;;;;;3.97;2.60;;;24.10;49.20;;;;;;5020679;28;20045;-71
2021/06/30 03:46:54;;;;;;;7.82;3.20;;;24.20;49.10;;;;;;5009189;28;20395;-70
2021/06/30 03:49:19;;;;;;;6.50;3.67;;;24.10;49.10;;;;;;5014563;28;20042;-71
2021/06/30 03:51:45;;;;;;;5.15;2.65;;;24.10;49.50;;;;;;5011247;28;20058;-71
2021/06/30 03:54:11;;;;;;;6.82;2.50;;;24.20;49.50;;;;;;5006387;28;20046;-70
2021/06/30 03:56:36;;;;;;;4.50;3.17;;;24.20;49.60;;;;;;5020133;28;20038;-70
2021/06/30 03:59:03;;;;;;;3.30;2.55;;;24.20;49.40;;;;;;5012785;28;20045;-71
2021/06/30 04:01:28;;;;;;;4.65;2.40;;;24.20;49.90;;;;;;5020744;28;20076;-70
2021/06/30 04:03:55;;;;;;;4.80;2.78;;;24.10;49.90;;;;;;5022887;28;20041;-71
2021/06/30 04:06:21;;;;;;;6.70;3.13;;;24.20;50.40;;;;;;5024034;28;20048;-71
2021/06/30 04:08:48;;;;;;;4.30;2.53;;;24.20;51.30;;;;;;5015884;28;20045;-70
2021/06/30 04:11:13;;;;;;;5.20;3.25;;;24.20;51.30;;;;;;5016779;28;20030;-70
2021/06/30 04:13:39;;;;;;;4.53;2.83;;;24.10;51.50;;;;;;5015682;28;20045;-70
2021/06/30 04:16:05;;;;;;;3.15;2.60;;;24.10;52.10;;;;;;5032756;28;20415;-70
2021/06/30 04:18:31;;;;;;;5.57;3.40;;;24.10;52.30;;;;;;5024244;28;20477;-71
2021/06/30 04:20:57;;;;;;;5.25;3.17;;;24.10;52.80;;;;;;5007375;28;20205;-71
2021/06/30 04:23:23;;;;;;;4.45;2.97;;;24.10;52.70;;;;;;5022967;28;20168;-70
2021/06/30 04:25:48;;;;;;;6.25;3.08;;;24.10;52.60;;;;;;5015630;28;20056;-71
2021/06/30 04:28:15;;;;;;;5.82;3.00;;;24.10;52.60;;;;;;5019216;28;20049;-70
2021/06/30 04:30:41;;;;;;;6.25;2.50;;;24.10;52.30;;;;;;5015155;28;20263;-69
2021/06/30 04:33:08;;;;;;;5.30;3.42;;;24.10;52.60;;;;;;5019560;28;20153;-55
2021/06/30 04:35:34;;;;;;;4.00;2.92;;;24.10;52.70;;;;;;5016319;28;20049;-71
2021/06/30 04:38:04;;;;;;;3.50;2.95;;;24.10;52.30;;;;;;5007162;28;20479;-71
2021/06/30 04:40:30;;;;;;;3.72;2.90;;;24.00;52.90;;;;;;5017866;28;20081;-70
2021/06/30 04:42:55;;;;;;;5.10;2.92;;;24.10;52.70;;;;;;5022370;28;20510;-71
2021/06/30 04:45:21;;;;;;;8.15;3.67;;;24.10;52.40;;;;;;5013005;28;20073;-70
2021/06/30 04:47:47;;;;;;;4.97;3.10;;;24.10;52.60;;;;;;5019758;28;20410;-70
2021/06/30 04:50:12;;;;;;;5.55;3.33;;;24.10;52.70;;;;;;5027189;28;20099;-70
2021/06/30 04:52:38;;;;;;;4.65;3.10;;;24.10;52.70;;;;;;5008603;28;20038;-70
2021/06/30 04:55:05;;;;;;;4.85;3.30;;;24.10;52.70;;;;;;5016408;28;20140;-72
2021/06/30 04:57:32;;;;;;;8.13;3.60;;;24.00;53.40;;;;;;5019378;28;20041;-72
2021/06/30 04:59:58;;;;;;;5.57;3.90;;;23.90;53.90;;;;;;5015511;28;20510;-71
2021/06/30 05:02:23;;;;;;;10.52;4.00;;;24.00;53.60;;;;;;5016566;28;20049;-71
2021/06/30 05:04:49;;;;;;;7.05;3.63;;;24.00;53.50;;;;;;5028623;28;20044;-71
2021/06/30 05:07:14;;;;;;;5.15;3.90;;;24.00;53.70;;;;;;5013251;28;20056;-71
2021/06/30 05:09:40;;;;;;;5.97;3.42;;;23.90;53.30;;;;;;5020343;28;20040;-71
2021/06/30 05:12:06;;;;;;;6.40;4.18;;;23.80;52.90;;;;;;5014102;28;20033;-70
2021/06/30 05:14:31;;;;;;;6.68;4.13;;;23.70;52.90;;;;;;5019590;28;20038;-70
2021/06/30 05:16:57;;;;;;;7.63;4.40;;;23.80;52.60;;;;;;5016353;28;20052;-70
2021/06/30 05:19:23;;;;;;;8.57;4.20;;;23.80;52.80;;;;;;5014857;28;20034;-71
2021/06/30 05:21:48;;;;;;;8.45;5.00;;;23.80;52.70;;;;;;5034509;28;20034;-71
2021/06/30 05:24:14;;;;;;;6.30;4.55;;;23.90;52.60;;;;;;5015161;28;20124;-71
2021/06/30 05:26:40;;;;;;;5.18;4.65;;;23.80;52.80;;;;;;5019532;28;20140;-70
2021/06/30 05:29:05;;;;;;;7.10;4.82;;;23.70;52.70;;;;;;5019915;28;20057;-71
2021/06/30 05:31:31;;;;;;;12.75;5.47;;;23.80;53.90;;;;;;5012522;28;20535;-72
2021/06/30 05:33:57;;;;;;;5.43;4.35;;;23.80;53.70;;;;;;5032104;28;20060;-72
2021/06/30 05:36:22;;;;;;;8.32;4.70;;;23.80;53.50;;;;;;5015724;28;20066;-71
2021/06/30 05:38:48;;;;;;;9.95;5.63;;;23.90;53.40;;;;;;5016082;28;20407;-70
2021/06/30 05:41:14;;;;;;;6.22;5.50;;;23.80;53.60;;;;;;5021910;28;20046;-71
2021/06/30 05:43:39;;;;;;;7.32;5.40;;;23.80;53.70;;;;;;5007424;28;20146;-70
2021/06/30 05:46:05;;;;;;;6.93;5.53;;;23.70;53.60;;;;;;5000012;28;20121;-71
2021/06/30 05:48:32;;;;;;;8.82;6.13;;;23.80;53.70;;;;;;5003172;28;20463;-71
2021/06/30 05:50:58;;;;;;;6.18;5.68;;;23.80;53.70;;;;;;5011726;28;20451;-71
2021/06/30 05:53:24;;;;;;;8.65;6.38;;;23.80;53.70;;;;;;5002803;28;20756;-73
2021/06/30 05:55:50;;;;;;;10.52;5.57;;;23.80;53.60;;;;;;5021333;28;20044;-71
2021/06/30 05:58:15;;;;;;;9.32;5.50;;;23.90;53.70;;;;;;5020260;28;20041;-72
2021/06/30 06:00:42;;;;;;;9.18;6.03;;;24.00;53.70;;;;;;5015239;28;20041;-71
2021/06/30 06:03:09;;;;;;;7.85;5.72;;;24.00;53.80;;;;;;5016640;28;20049;-71
2021/06/30 06:05:35;;;;;;;8.57;6.53;;;24.10;53.60;;;;;;5004811;28;20088;-71
2021/06/30 06:08:00;;;;;;;10.45;7.05;;;24.00;53.70;;;;;;5018283;28;20457;-70
2021/06/30 06:10:26;;;;;;;8.85;6.97;;;24.00;53.70;;;;;;5015231;28;20113;-70
2021/06/30 06:12:51;;;;;;;7.57;6.88;;;24.10;54.50;;;;;;5013689;28;20034;-70
2021/06/30 06:15:17;;;;;;;9.57;7.28;;;23.90;54.30;;;;;;5008909;28;20206;-71
2021/06/30 06:17:43;;;;;;;9.20;6.90;;;23.80;54.80;;;;;;5016085;28;20502;-71
2021/06/30 06:20:10;;;;;;;9.02;7.10;;;23.70;55.10;;;;;;5029022;28;20037;-66
2021/06/30 06:22:36;;;;;;;12.15;7.30;;;23.70;55.10;;;;;;5002048;28;20038;-70
2021/06/30 06:25:04;;;;;;;10.15;6.50;;;23.70;55.30;;;;;;5019249;28;20487;-70
2021/06/30 06:27:29;;;;;;;7.45;5.88;;;23.70;55.40;;;;;;5003158;28;20152;-69
2021/06/30 06:29:55;;;;;;;8.48;5.93;;;23.70;55.20;;;;;;5005883;28;20163;-70
2021/06/30 06:32:21;;;;;;;6.53;5.63;;;23.80;54.80;;;;;;5015079;28;20083;-70
2021/06/30 06:34:46;;;;;;;5.78;5.18;;;23.90;54.10;;;;;;5006052;28;20435;-70
2021/06/30 06:37:15;;;;;;;6.40;5.30;;;23.70;54.20;;;;;;5018391;28;20037;-69
2021/06/30 06:39:41;;;;;;;9.00;4.93;;;23.80;54.00;;;;;;5018731;28;20503;-68
2021/06/30 06:42:08;;;;;;;13.90;5.28;;;23.80;53.90;;;;;;5012812;28;20046;-71
2021/06/30 06:44:34;;;;;;;8.13;5.07;;;23.90;53.90;;;;;;5021794;28;20514;-70
2021/06/30 06:47:01;;;;;;;7.70;5.55;;;23.90;53.90;;;;;;5013897;28;20050;-70
2021/06/30 06:49:27;;;;;;;6.28;5.65;;;23.90;53.70;;;;;;5019858;28;20050;-69
2021/06/30 06:51:52;;;;;;;7.25;5.00;;;23.90;53.90;;;;;;5007455;28;20045;-70
2021/06/30 06:54:18;;;;;;;7.60;4.95;;;24.00;53.50;;;;;;5024389;28;20083;-70
2021/06/30 06:56:44;;;;;;;8.40;5.38;;;24.00;53.20;;;;;;5017176;28;20050;-69
2021/06/30 06:59:09;;;;;;;8.32;5.38;;;24.00;53.40;;;;;;5023558;28;20439;-69
2021/06/30 07:01:35;;;;;;;6.60;4.70;;;24.00;53.60;;;;;;5019505;28;20452;-70
2021/06/30 07:04:01;;;;;;;6.07;5.15;;;24.00;53.50;;;;;;5020645;28;20057;-70
2021/06/30 07:06:27;;;;;;;7.65;5.15;;;24.00;53.10;;;;;;5013306;28;20075;-70
2021/06/30 07:08:53;;;;;;;7.63;4.68;;;24.30;52.90;;;;;;5035920;28;20534;-70
2021/06/30 07:11:19;;;;;;;6.95;4.93;;;24.20;53.10;;;;;;5014057;28;20030;-71
2021/06/30 07:13:46;;;;;;;5.90;4.47;;;24.30;53.40;;;;;;5020028;28;20037;-71
2021/06/30 07:16:12;;;;;;;6.80;4.50;;;24.30;52.60;;;;;;5015617;28;20057;-71
2021/06/30 07:18:38;;;;;;;9.68;4.47;;;24.30;52.40;;;;;;5015842;28;20042;-71
2021/06/30 07:21:05;;;;;;;5.63;3.60;;;24.30;52.30;;;;;;5007520;28;20458;-71
2021/06/30 07:23:31;;;;;;;4.07;3.63;;;24.40;52.30;;;;;;5020570;28;20553;-71
2021/06/30 07:25:57;;;;;;;7.25;4.10;;;24.50;51.80;;;;;;5017979;28;20091;-70
2021/06/30 07:28:24;;;;;;;8.45;4.97;;;24.60;51.90;;;;;;5007308;28;20050;-71
2021/06/30 07:30:50;;;;;;;8.68;4.85;;;24.60;51.70;;;;;;5025165;28;20033;-71
2021/06/30 07:33:15;;;;;;;6.40;4.70;;;24.60;51.30;;;;;;5022053;28;20487;-71
2021/06/30 07:35:41;;;;;;;7.43;4.53;;;24.80;51.30;;;;;;5014010;28;20045;-70
2021/06/30 07:38:08;;;;;;;6.38;4.63;;;24.90;50.90;;;;;;5009223;28;20037;-70
2021/06/30 07:40:34;;;;;;;9.13;4.72;;;24.90;50.90;;;;;;5010863;28;20165;-70
2021/06/30 07:43:00;;;;;;;7.85;4.72;;;25.10;50.50;;;;;;5021001;28;20037;-71
2021/06/30 07:45:26;;;;;;;5.82;5.18;;;25.20;50.40;;;;;;5022255;28;20033;-70
2021/06/30 07:47:52;;;;;;;8.00;4.75;;;25.10;50.60;;;;;;5014641;28;20048;-70
2021/06/30 07:50:19;;;;;;;5.32;4.70;;;24.90;50.50;;;;;;5018480;28;20041;-70
2021/06/30 07:52:48;;;;;;;8.70;4.53;;;24.90;50.50;;;;;;5011270;28;20040;-70
2021/06/30 07:55:13;;;;;;;7.90;4.68;;;25.00;50.20;;;;;;5008557;28;20034;-70
2021/06/30 07:57:39;;;;;;;7.55;5.25;;;25.20;50.70;;;;;;4998175;28;20036;-68
2021/06/30 08:00:06;;;;;;;5.30;4.00;;;25.30;50.30;;;;;;5031507;28;20603;-70
2021/06/30 08:02:35;;;;;;;8.57;4.53;;;25.30;50.40;;;;;;5020679;28;20041;-70
2021/06/30 08:05:01;;;;;;;6.35;4.68;;;25.50;50.50;;;;;;5015115;28;20476;-71
2021/06/30 08:07:27;;;;;;;6.57;3.95;;;25.60;50.20;;;;;;5023671;28;20049;-70
2021/06/30 08:09:52;;;;;;;6.70;3.67;;;25.80;50.30;;;;;;5019404;28;20908;-70
2021/06/30 08:12:18;;;;;;;4.72;4.25;;;26.00;49.70;;;;;;5022497;28;20037;-71
2021/06/30 08:14:44;;;;;;;7.88;4.30;;;26.00;49.10;;;;;;5006109;28;20073;-70
2021/06/30 08:17:10;;;;;;;5.22;4.25;;;26.00;48.70;;;;;;5012000;28;20120;-69
2021/06/30 08:19:36;;;;;;;8.73;4.32;;;26.00;48.80;;;;;;5015800;28;20113;-70
2021/06/30 08:22:02;;;;;;;5.30;3.53;;;25.90;48.40;;;;;;5015457;28;20048;-70
2021/06/30 08:24:28;;;;;;;4.18;3.15;;;25.90;48.00;;;;;;5019010;28;20391;-70
2021/06/30 08:26:55;;;;;;;6.38;3.40;;;25.90;48.30;;;;;;5023200;28;20045;-70
2021/06/30 08:29:21;;;;;;;5.15;3.72;;;25.90;47.60;;;;;;5016560;28;20033;-70
2021/06/30 08:31:47;;;;;;;5.47;4.25;;;26.10;47.40;;;;;;5023213;28;20060;-69
2021/06/30 08:34:13;;;;;;;7.22;3.40;;;26.00;47.30;;;;;;5016172;28;20057;-69
2021/06/30 08:36:39;;;;;;;5.82;3.50;;;26.10;47.00;;;;;;5013242;28;20045;-53
2021/06/30 08:39:05;;;;;;;4.22;3.85;;;26.20;46.70;;;;;;5018909;28;20053;-69
2021/06/30 08:41:31;;;;;;;9.30;3.28;;;26.30;46.50;;;;;;5015320;28;20038;-70
2021/06/30 08:43:57;;;;;;;6.78;3.10;;;26.40;46.80;;;;;;5010782;28;20398;-69
2021/06/30 08:46:23;;;;;;;4.05;3.45;;;26.40;46.80;;;;;;5017854;28;20049;-69
2021/06/30 08:48:54;;;;;;;5.60;4.47;;;26.50;46.50;;;;;;5010959;28;20037;-69
2021/06/30 08:51:25;;;;;;;8.52;3.53;;;26.80;45.70;;;;;;5018575;28;20072;-70
2021/06/30 08:53:54;;;;;;;4.53;3.72;;;26.80;45.40;;;;;;5019459;28;20044;-68
2021/06/30 08:56:20;;;;;;;6.40;4.10;;;26.90;46.80;;;;;;5016520;28;20056;-69
2021/06/30 08:58:50;;;;;;;4.80;3.63;;;26.90;47.50;;;;;;5032855;28;20038;-70
2021/06/30 09:01:16;;;;;;;11.20;3.63;;;27.30;48.70;;;;;;5017023;28;20041;-70
2021/06/30 09:03:49;;;;;;;6.68;3.67;;;27.40;45.40;;;;;;5014248;28;20380;-69
2021/06/30 09:06:16;;;;;;;6.15;4.18;;;27.30;43.70;;;;;;5023651;28;20049;-69
2021/06/30 09:08:48;;;;;;;3.78;3.35;;;27.30;44.30;;;;;;5007172;28;20034;-69
2021/06/30 09:11:16;;;;;;;5.47;3.05;;;27.40;43.70;;;;;;5001071;28;20041;-69
2021/06/30 09:13:42;;;;;;;8.38;3.20;;;27.40;44.00;;;;;;5016112;28;20115;-70
2021/06/30 09:16:08;;;;;;;5.43;3.85;;;27.50;42.60;;;;;;5013172;28;20060;-70
2021/06/30 09:18:37;;;;;;;7.97;3.15;;;27.50;42.50;;;;;;5016188;28;20052;-70
2021/06/30 09:21:23;;;;;;;7.57;3.72;;;27.20;42.30;;;;;;5010832;28;20373;-70
2021/06/30 09:24:18;;;;;;;6.47;4.18;;;27.60;42.00;;;;;;5000526;28;20044;-70
2021/06/30 09:26:53;;;;;;;10.40;3.80;;;27.70;41.70;;;;;;4985421;28;20923;-68
2021/06/30 09:29:20;;;;;;;5.18;3.47;;;27.80;41.60;;;;;;5008408;28;20050;-77
2021/06/30 09:31:49;;;;;;;6.50;3.30;;;27.80;40.90;;;;;;5007025;28;20038;-72
2021/06/30 09:34:26;;;;;;;6.93;3.60;;;27.80;41.50;;;;;;5015867;28;20513;-69
2021/06/30 09:36:57;;;;;;;8.00;4.07;;;27.70;41.80;;;;;;5017146;28;20096;-71
2021/06/30 09:39:24;;;;;;;6.07;3.83;;;27.80;41.70;;;;;;5010110;28;20027;-71
2021/06/30 09:42:00;;;;;;;713.92;209.77;;;27.80;41.20;;;;;;5030596;28;20521;-69
2021/06/30 09:44:27;;;;;;;10.23;4.18;;;27.70;55.10;;;;;;5017495;28;20448;-70
2021/06/30 09:46:55;;;;;;;8.27;3.50;;;27.60;55.40;;;;;;5008485;28;20046;-68
2021/06/30 09:49:22;;;;;;;4.28;3.03;;;27.50;54.80;;;;;;5009009;28;20034;-68
2021/06/30 09:52:04;;;;;;;6.03;3.22;;;27.40;54.90;;;;;;5009456;28;20135;-67
2021/06/30 09:54:31;;;;;;;6.07;3.30;;;27.40;55.20;;;;;;5006604;28;20045;-67
2021/06/30 09:57:10;;;;;;;3.67;2.83;;;27.60;54.80;;;;;;5012426;28;20400;-68
2021/06/30 09:59:38;;;;;;;4.65;3.50;;;27.70;54.40;;;;;;5015643;28;20537;-69
2021/06/30 10:02:05;;;;;;;8.55;3.90;;;27.80;54.20;;;;;;5014032;28;20046;-68
2021/06/30 10:04:32;;;;;;;3.72;3.05;;;27.70;54.60;;;;;;5001163;28;20503;-69
2021/06/30 10:07:03;;;;;;;9.20;3.90;;;27.80;54.50;;;;;;5015031;28;20038;-69
2021/06/30 10:09:30;;;;;;;3.25;2.70;;;27.90;53.40;;;;;;5018725;28;20395;-69
2021/06/30 10:12:06;;;;;;;4.03;2.53;;;28.00;53.40;;;;;;5021249;28;20760;-69
2021/06/30 10:14:32;;;;;;;2.88;2.58;;;27.90;52.80;;;;;;5016690;28;20129;-69
2021/06/30 10:16:59;;;;;;;5.90;2.97;;;27.90;53.30;;;;;;5017971;28;20099;-70
2021/06/30 10:19:25;;;;;;;7.72;3.13;;;27.80;53.20;;;;;;5020621;28;20045;-69
2021/06/30 10:21:51;;;;;;;6.25;2.80;;;28.20;52.40;;;;;;5019694;28;20124;-69
2021/06/30 10:24:18;;;;;;;2.72;2.42;;;28.30;52.40;;;;;;5020532;28;20049;-71
